createdAt,value
2018-03-23T00:00:41.866Z,94753.57
2018-03-23T00:03:15.141Z,94749.30
2018-03-23T00:05:48.419Z,94750.13
2018-03-23T00:08:21.692Z,94748.33
2018-03-23T00:10:54.940Z,94754.80
2018-03-23T00:13:28.208Z,94746.94
2018-03-23T01:47:12.709Z,94685.98
2018-03-23T01:49:45.968Z,94680.97
2018-03-23T01:52:20.008Z,94678.38
2018-03-23T01:54:53.259Z,94683.23
2018-03-23T01:57:27.322Z,94680.08
2018-03-23T02:00:00.578Z,94681.75
2018-03-23T03:30:56.243Z,94635.80
2018-03-23T03:33:30.300Z,94640.88
2018-03-23T03:36:03.556Z,94641.20
2018-03-23T03:38:36.822Z,94645.38
2018-03-23T03:41:10.848Z,94645.56
2018-03-23T03:43:44.909Z,94638.11
2018-03-23T04:48:07.245Z,94601.84
2018-03-23T04:50:41.266Z,94604.13
2018-03-23T04:53:14.544Z,94599.05
2018-03-23T04:55:47.797Z,94594.71
2018-03-23T04:58:21.093Z,94593.73
2018-03-23T05:33:26.860Z,94572.55
2018-03-23T05:36:00.921Z,94577.14
2018-03-23T05:38:34.162Z,94580.95
2018-03-23T05:41:08.209Z,94580.74
2018-03-23T05:43:41.456Z,94579.56
2018-03-23T05:46:15.565Z,94579.73
2018-03-23T05:48:48.757Z,94579.16
2018-03-23T05:51:22.039Z,94580.32
2018-03-23T05:53:55.288Z,94581.39
2018-03-23T05:56:28.560Z,94575.25
2018-03-23T05:59:01.850Z,94576.41
2018-03-23T06:01:35.889Z,94581.52
2018-03-23T06:04:09.140Z,94576.13
2018-03-23T06:06:42.424Z,94578.17
2018-03-23T06:09:15.685Z,94567.36
2018-03-23T06:11:48.965Z,94563.35
2018-03-23T06:14:22.207Z,94557.88
2018-03-23T06:16:55.508Z,94573.02
2018-03-23T06:19:28.768Z,94565.78
2018-03-23T06:22:02.041Z,94564.64
2018-03-23T06:24:35.314Z,94564.89
2018-03-23T06:27:09.339Z,94567.20
2018-03-23T06:29:42.609Z,94553.93
2018-03-23T06:32:15.862Z,94567.31
2018-03-23T06:34:49.129Z,94560.69
2018-03-23T06:37:22.378Z,94563.72
2018-03-23T06:39:55.661Z,94568.06
2018-03-23T06:42:28.925Z,94569.62
2018-03-23T06:45:02.204Z,94566.02
2018-03-23T06:47:35.472Z,94561.11
2018-03-23T06:50:08.751Z,94569.38
2018-03-23T06:52:42.797Z,94567.42
2018-03-23T06:55:16.050Z,94564.95
2018-03-23T06:57:49.320Z,94570.61
2018-03-23T07:00:22.573Z,94566.93
2018-03-23T07:02:55.841Z,94572.91
2018-03-23T07:05:29.085Z,94565.33
2018-03-23T07:08:02.394Z,94575.66
2018-03-23T07:10:35.653Z,94575.16
2018-03-23T07:13:08.949Z,94572.38
2018-03-23T07:15:42.209Z,94568.38
2018-03-23T07:18:15.484Z,94574.84
2018-03-23T07:20:48.776Z,94576.08
2018-03-23T07:23:22.024Z,94566.00
2018-03-23T07:25:55.298Z,94573.70
2018-03-23T07:28:28.564Z,94560.11
2018-03-23T08:03:23.133Z,94546.88
2018-03-23T08:05:56.386Z,94557.38
2018-03-23T08:08:30.438Z,94550.56
2018-03-23T08:11:03.691Z,94544.42
2018-03-23T08:13:36.977Z,94549.02
2018-03-23T09:01:43.429Z,94521.46
2018-03-23T09:04:16.684Z,94516.45
2018-03-23T09:06:49.964Z,94523.17
2018-03-23T09:09:23.255Z,94522.11
2018-03-23T09:11:56.539Z,94515.63
2018-03-23T09:14:29.814Z,94524.65
2018-03-23T10:02:36.388Z,94487.17
2018-03-23T10:05:09.641Z,94485.78
2018-03-23T10:07:42.922Z,94485.20
2018-03-23T10:10:16.164Z,94485.52
2018-03-23T10:12:50.212Z,94485.35
2018-03-23T11:01:02.197Z,94453.38
2018-03-23T11:03:35.475Z,94456.85
2018-03-23T11:06:08.729Z,94465.14
2018-03-23T11:08:42.011Z,94456.01
2018-03-23T11:11:15.245Z,94455.77
2018-03-23T11:13:48.528Z,94450.31
2018-03-23T12:01:53.322Z,94431.65
2018-03-23T12:04:26.578Z,94428.52
2018-03-23T12:06:59.863Z,94423.95
2018-03-23T12:09:33.113Z,94424.50
2018-03-23T12:12:07.146Z,94419.39
2018-03-23T12:14:40.409Z,94417.52
2018-03-23T13:02:47.177Z,94359.97
2018-03-23T13:05:21.231Z,94355.77
2018-03-23T13:07:54.471Z,94350.02
2018-03-23T13:10:27.765Z,94348.82
2018-03-23T13:13:01.782Z,94350.88
2018-03-23T14:01:08.812Z,94270.72
2018-03-23T14:03:42.061Z,94271.91
2018-03-23T14:06:15.334Z,94264.63
2018-03-23T14:08:49.362Z,94270.07
2018-03-23T14:11:23.406Z,94255.47
2018-03-23T14:13:56.694Z,94253.13
2018-03-23T15:02:02.514Z,94194.31
2018-03-23T15:04:35.731Z,94195.64
2018-03-23T15:07:08.997Z,94191.02
2018-03-23T15:09:43.018Z,94201.50
2018-03-23T15:12:17.055Z,94195.97
2018-03-23T15:14:50.314Z,94187.97
2018-03-23T15:46:40.409Z,94175.02
2018-03-23T15:49:13.666Z,94168.56
2018-03-23T15:51:46.944Z,94162.26
2018-03-23T15:54:20.184Z,94162.44
2018-03-23T15:56:53.460Z,94161.06
2018-03-23T15:59:26.721Z,94158.31
2018-03-23T16:02:00.065Z,94158.91
2018-03-23T16:04:34.003Z,94153.83
2018-03-23T16:07:08.046Z,94160.27
2018-03-23T16:09:41.303Z,94155.39
2018-03-23T16:12:14.582Z,94152.12
2018-03-23T16:14:47.829Z,94147.05
2018-03-23T16:17:21.115Z,94141.87
2018-03-23T16:19:54.366Z,94142.97
2018-03-23T16:22:27.644Z,94145.87
2018-03-23T16:25:00.892Z,94139.47
2018-03-23T16:27:34.161Z,94143.62
2018-03-23T16:30:08.173Z,94145.63
2018-03-23T16:32:41.457Z,94141.22
2018-03-23T16:35:14.722Z,94145.46
2018-03-23T16:37:48.002Z,94146.38
2018-03-23T16:40:21.242Z,94142.20
2018-03-23T16:42:55.334Z,94147.56
2018-03-23T16:45:28.538Z,94142.99
2018-03-23T16:48:01.845Z,94144.91
2018-03-23T16:50:35.070Z,94143.75
2018-03-23T16:53:08.338Z,94147.70
2018-03-23T16:55:41.588Z,94150.03
2018-03-23T16:58:14.921Z,94147.55
2018-03-23T17:00:48.939Z,94146.52
2018-03-23T17:03:22.221Z,94147.72
2018-03-23T17:05:55.461Z,94150.86
2018-03-23T17:08:28.742Z,94153.09
2018-03-23T17:11:02.002Z,94148.08
2018-03-23T17:13:35.292Z,94141.67
2018-03-23T17:16:08.529Z,94144.81
2018-03-23T17:18:42.909Z,94139.13
2018-03-23T17:21:16.177Z,94133.14
2018-03-23T17:23:49.421Z,94129.70
2018-03-23T17:26:22.726Z,94128.16
2018-03-23T17:28:55.973Z,94130.48
2018-03-23T17:31:29.246Z,94128.45
2018-03-23T17:34:02.503Z,94130.43
2018-03-23T17:36:35.993Z,94130.02
2018-03-23T17:39:10.018Z,94121.70
2018-03-23T17:41:43.270Z,94130.52
2018-03-23T17:44:16.564Z,94136.80
2018-03-23T17:46:49.809Z,94133.34
2018-03-23T17:49:23.086Z,94130.21
2018-03-23T17:51:56.338Z,94127.08
2018-03-23T17:54:29.616Z,94132.53
2018-03-23T17:57:02.885Z,94130.31
2018-03-23T17:59:36.129Z,94131.63
2018-03-23T18:02:10.270Z,94135.08
2018-03-23T18:04:43.537Z,94132.63
2018-03-23T18:07:17.473Z,94129.18
2018-03-23T18:09:50.843Z,94126.14
2018-03-23T18:12:25.103Z,94134.95
2018-03-23T18:14:58.520Z,94134.52
2018-03-23T18:17:31.787Z,94135.64
2018-03-23T18:20:05.123Z,94130.76
2018-03-23T18:22:39.126Z,94130.01
2018-03-23T18:25:12.406Z,94128.69
2018-03-23T18:27:45.653Z,94127.38
2018-03-23T18:30:18.937Z,94133.43
2018-03-23T18:32:52.215Z,94133.74
2018-03-23T18:35:25.471Z,94138.00
2018-03-23T18:37:58.740Z,94137.66
2018-03-23T18:40:32.782Z,94138.28
2018-03-23T18:43:06.038Z,94136.84
2018-03-23T18:45:40.093Z,94139.13
2018-03-23T18:48:14.255Z,94132.39
2018-03-23T18:50:47.498Z,94135.34
2018-03-23T18:53:20.775Z,94133.52
2018-03-23T18:55:54.054Z,94132.20
2018-03-23T18:58:28.069Z,94135.96
2018-03-23T19:01:01.868Z,94138.59
2018-03-23T19:03:35.889Z,94139.00
2018-03-23T19:06:09.156Z,94141.73
2018-03-23T19:08:42.434Z,94133.85
2018-03-23T19:11:15.690Z,94136.56
2018-03-23T19:13:49.007Z,94132.73
2018-03-23T19:16:22.263Z,94130.66
2018-03-23T19:18:55.534Z,94133.02
2018-03-23T19:21:29.546Z,94131.91
2018-03-23T19:24:02.824Z,94137.59
2018-03-23T19:26:36.072Z,94129.69
2018-03-23T19:29:09.357Z,94136.27
2018-03-23T19:34:15.944Z,94119.74
2018-03-23T19:36:49.197Z,94128.05
2018-03-23T19:39:22.477Z,94121.06
2018-03-23T19:41:55.738Z,94118.02
2018-03-23T19:44:29.027Z,94121.66
2018-03-23T19:47:02.276Z,94120.75
2018-03-23T19:49:35.559Z,94121.66
2018-03-23T19:52:08.834Z,94117.80
2018-03-23T19:54:42.078Z,94119.93
2018-03-23T19:57:15.466Z,94119.02
2018-03-23T19:59:48.677Z,94116.89
2018-03-23T20:02:21.945Z,94118.11
2018-03-23T20:04:55.235Z,94116.39
2018-03-23T20:07:28.471Z,94114.25
2018-03-23T20:10:01.765Z,94113.44
2018-03-23T20:12:35.028Z,94110.49
2018-03-23T20:15:09.070Z,94114.45
2018-03-23T20:17:47.953Z,94118.90
2018-03-23T20:20:26.789Z,94108.52
2018-03-23T20:23:00.065Z,94115.11
2018-03-23T20:25:33.304Z,94112.57
2018-03-23T20:28:12.011Z,94110.34
2018-03-23T20:30:46.043Z,94110.75
2018-03-23T20:33:19.318Z,94108.61
2018-03-23T20:35:53.337Z,94105.98
2018-03-23T20:38:27.378Z,94103.54
2018-03-23T20:41:00.633Z,94103.32
2018-03-23T20:43:34.663Z,94100.38
2018-03-23T20:46:07.917Z,94101.47
2018-03-23T20:48:41.187Z,94099.34
2018-03-23T20:51:14.469Z,94098.12
2018-03-23T20:53:47.719Z,94104.20
2018-03-23T20:56:21.767Z,94099.75
2018-03-23T20:58:55.045Z,94098.84
2018-03-23T21:01:28.301Z,94098.53
2018-03-23T21:04:02.350Z,94092.95
2018-03-23T21:06:35.593Z,94095.58
2018-03-23T21:09:08.891Z,94087.23
2018-03-23T21:11:42.154Z,94089.47
2018-03-23T21:14:15.408Z,94084.70
2018-03-23T21:16:48.708Z,94083.89
2018-03-23T21:19:21.981Z,94077.39
2018-03-23T21:21:55.259Z,94070.41
2018-03-23T21:24:28.542Z,94066.55
2018-03-23T21:27:01.810Z,94066.64
2018-03-23T21:29:35.079Z,94063.59
2018-03-23T21:32:08.340Z,94068.27
2018-03-23T21:34:41.635Z,94065.23
2018-03-23T21:37:14.890Z,94053.88
2018-03-23T21:39:48.161Z,94057.73
2018-03-23T21:42:21.412Z,94052.05
2018-03-23T21:44:54.686Z,94055.91
2018-03-23T21:47:27.945Z,94056.41
2018-03-23T21:50:01.226Z,94056.01
2018-03-23T21:52:34.521Z,94048.11
2018-03-23T21:55:07.803Z,94049.52
2018-03-23T21:57:41.823Z,94053.06
2018-03-23T22:00:15.861Z,94051.84
2018-03-23T22:02:49.111Z,94055.08
2018-03-23T22:05:23.158Z,94056.89
2018-03-23T22:07:56.388Z,94057.40
2018-03-23T22:10:29.661Z,94053.23
2018-03-23T22:13:02.909Z,94052.83
2018-03-23T22:15:36.946Z,94042.85
2018-03-23T22:18:10.204Z,94042.95
2018-03-23T22:20:43.473Z,94039.00
2018-03-23T22:23:16.746Z,94035.55
2018-03-23T22:25:49.989Z,94037.78
2018-03-23T22:28:24.035Z,94036.36
2018-03-23T22:30:57.287Z,94030.78
2018-03-23T22:33:30.554Z,94024.39
2018-03-23T22:36:03.811Z,94024.39
2018-03-23T22:38:37.081Z,94019.72
2018-03-23T22:41:11.085Z,94018.41
2018-03-23T22:43:45.130Z,94020.23
2018-03-23T22:46:18.395Z,94017.87
2018-03-23T22:48:51.653Z,94020.52
2018-03-23T22:51:24.895Z,94013.21
2018-03-23T22:53:58.953Z,94008.04
2018-03-23T22:56:32.192Z,94003.24
2018-03-23T22:59:05.463Z,94007.70
2018-03-23T23:01:38.713Z,94003.59
2018-03-23T23:04:11.987Z,94007.53
2018-03-23T23:06:45.995Z,94000.26
2018-03-23T23:09:19.267Z,93996.41
2018-03-23T23:11:52.509Z,93995.40
2018-03-23T23:14:25.800Z,93987.19
2018-03-23T23:16:59.062Z,93994.58
2018-03-23T23:19:33.069Z,93988.50
2018-03-23T23:22:06.357Z,93989.31
2018-03-23T23:24:40.377Z,93992.36
2018-03-23T23:27:13.642Z,93994.27
2018-03-23T23:29:46.889Z,93993.36
2018-03-23T23:32:20.154Z,93984.74
2018-03-23T23:34:54.205Z,93985.31
2018-03-23T23:37:27.482Z,93985.09
2018-03-23T23:40:00.733Z,93976.07
2018-03-23T23:42:33.997Z,93973.22
2018-03-23T23:45:07.259Z,93971.59
2018-03-23T23:47:41.284Z,93971.69
2018-03-23T23:50:14.537Z,93961.35
2018-03-23T23:52:47.828Z,93965.80
2018-03-23T23:55:21.068Z,93961.20
2018-03-23T23:57:54.366Z,93956.53
